Buda, Texas
Current Conditions -  °F | °C
As of 1:53 PM on Monday 22 Dec 2014 (Local Time) from KAUS Reporting Station
Overcast Overcast  
Wind Chill: 66°   Ceiling: 20000
Heat Index: 66°   Visibility: 10mi
Dew Point: 55°   Wind: 15mph
Humidity: 68%   Direction: 190°S
Pressure: 29.62"   Gusts: NA
Location:  30.09°N, 97.84°W
Report Text: KAUS 221953Z 19013KT 10SM SCT110 OVC200 19/13 A2962 RMK AO2 SLP028 T01890128
Loading
Personal Weather Stations






























Interactive Weather Map New forecast layout! Learn more

10-Day Weather Forecast

Advertisements
Track Severe Weather on mobile